sensor_id;sensor_type;location;lat;lon;timestamp;P1;durP1;ratioP1;P2;durP2;ratioP2
16286;SDS011;8251;53.568;10.018;2022-07-15T00:02:21;7.40;;;3.93;;
16286;SDS011;8251;53.568;10.018;2022-07-15T00:04:48;8.07;;;3.93;;
16286;SDS011;8251;53.568;10.018;2022-07-15T00:07:15;8.57;;;4.23;;
16286;SDS011;8251;53.568;10.018;2022-07-15T00:09:44;7.13;;;4.30;;
16286;SDS011;8251;53.568;10.018;2022-07-15T00:12:40;6.90;;;4.10;;
16286;SDS011;8251;53.568;10.018;2022-07-15T00:15:07;7.23;;;4.30;;
16286;SDS011;8251;53.568;10.018;2022-07-15T00:17:34;7.83;;;4.00;;
16286;SDS011;8251;53.568;10.018;2022-07-15T00:20:02;11.67;;;3.43;;
16286;SDS011;8251;53.568;10.018;2022-07-15T00:22:30;8.57;;;4.17;;
16286;SDS011;8251;53.568;10.018;2022-07-15T00:24:58;8.93;;;4.13;;
16286;SDS011;8251;53.568;10.018;2022-07-15T00:27:25;8.83;;;3.27;;
16286;SDS011;8251;53.568;10.018;2022-07-15T00:29:52;9.03;;;3.90;;
16286;SDS011;8251;53.568;10.018;2022-07-15T00:32:19;6.70;;;3.20;;
16286;SDS011;8251;53.568;10.018;2022-07-15T00:34:46;8.90;;;3.43;;
16286;SDS011;8251;53.568;10.018;2022-07-15T00:37:13;4.03;;;3.50;;
16286;SDS011;8251;53.568;10.018;2022-07-15T00:39:40;4.73;;;3.40;;
16286;SDS011;8251;53.568;10.018;2022-07-15T00:42:09;3.73;;;2.90;;
16286;SDS011;8251;53.568;10.018;2022-07-15T00:44:57;4.07;;;3.77;;
16286;SDS011;8251;53.568;10.018;2022-07-15T00:47:24;4.63;;;3.33;;
16286;SDS011;8251;53.568;10.018;2022-07-15T00:49:52;5.70;;;4.50;;
16286;SDS011;8251;53.568;10.018;2022-07-15T00:52:19;9.30;;;4.33;;
16286;SDS011;8251;53.568;10.018;2022-07-15T00:54:47;9.33;;;3.87;;
16286;SDS011;8251;53.568;10.018;2022-07-15T00:57:18;9.10;;;4.60;;
16286;SDS011;8251;53.568;10.018;2022-07-15T00:59:47;7.10;;;4.10;;
16286;SDS011;8251;53.568;10.018;2022-07-15T01:02:14;5.40;;;3.80;;
16286;SDS011;8251;53.568;10.018;2022-07-15T01:04:41;6.03;;;3.70;;
16286;SDS011;8251;53.568;10.018;2022-07-15T01:07:08;4.60;;;4.30;;
16286;SDS011;8251;53.568;10.018;2022-07-15T01:09:35;6.20;;;4.50;;
16286;SDS011;8251;53.568;10.018;2022-07-15T01:12:02;5.00;;;4.33;;
16286;SDS011;8251;53.568;10.018;2022-07-15T01:14:32;5.77;;;5.27;;
16286;SDS011;8251;53.568;10.018;2022-07-15T01:16:59;7.87;;;4.60;;
16286;SDS011;8251;53.568;10.018;2022-07-15T01:19:26;6.00;;;4.47;;
16286;SDS011;8251;53.568;10.018;2022-07-15T01:21:54;4.53;;;4.13;;
16286;SDS011;8251;53.568;10.018;2022-07-15T01:24:21;5.83;;;4.40;;
16286;SDS011;8251;53.568;10.018;2022-07-15T01:26:48;10.93;;;4.90;;
16286;SDS011;8251;53.568;10.018;2022-07-15T01:29:15;4.73;;;4.00;;
16286;SDS011;8251;53.568;10.018;2022-07-15T01:31:42;7.73;;;4.80;;
16286;SDS011;8251;53.568;10.018;2022-07-15T01:34:09;7.67;;;4.97;;
16286;SDS011;8251;53.568;10.018;2022-07-15T01:36:36;8.93;;;5.13;;
16286;SDS011;8251;53.568;10.018;2022-07-15T01:39:04;5.67;;;5.03;;
16286;SDS011;8251;53.568;10.018;2022-07-15T01:41:31;4.47;;;4.13;;
16286;SDS011;8251;53.568;10.018;2022-07-15T01:43:58;6.17;;;4.97;;
16286;SDS011;8251;53.568;10.018;2022-07-15T01:46:25;10.90;;;4.60;;
16286;SDS011;8251;53.568;10.018;2022-07-15T01:48:52;6.50;;;5.10;;
16286;SDS011;8251;53.568;10.018;2022-07-15T01:51:37;5.63;;;3.77;;
16286;SDS011;8251;53.568;10.018;2022-07-15T01:54:06;6.70;;;4.00;;
16286;SDS011;8251;53.568;10.018;2022-07-15T01:56:33;8.27;;;5.77;;
16286;SDS011;8251;53.568;10.018;2022-07-15T01:59:01;6.67;;;3.70;;
16286;SDS011;8251;53.568;10.018;2022-07-15T02:01:28;5.23;;;4.27;;
16286;SDS011;8251;53.568;10.018;2022-07-15T02:03:55;7.07;;;3.97;;
16286;SDS011;8251;53.568;10.018;2022-07-15T02:06:22;5.97;;;3.97;;
16286;SDS011;8251;53.568;10.018;2022-07-15T02:08:49;3.87;;;3.57;;
16286;SDS011;8251;53.568;10.018;2022-07-15T02:11:17;4.70;;;4.30;;
16286;SDS011;8251;53.568;10.018;2022-07-15T02:13:44;6.33;;;4.60;;
16286;SDS011;8251;53.568;10.018;2022-07-15T02:16:11;7.83;;;4.70;;
16286;SDS011;8251;53.568;10.018;2022-07-15T02:18:38;7.43;;;3.80;;
16286;SDS011;8251;53.568;10.018;2022-07-15T02:21:05;4.67;;;3.80;;
16286;SDS011;8251;53.568;10.018;2022-07-15T02:23:32;4.97;;;4.03;;
16286;SDS011;8251;53.568;10.018;2022-07-15T02:25:59;6.17;;;3.63;;
16286;SDS011;8251;53.568;10.018;2022-07-15T02:28:27;4.80;;;3.40;;
16286;SDS011;8251;53.568;10.018;2022-07-15T02:30:54;5.50;;;3.40;;
16286;SDS011;8251;53.568;10.018;2022-07-15T02:33:21;5.83;;;4.17;;
16286;SDS011;8251;53.568;10.018;2022-07-15T02:35:48;6.07;;;3.87;;
16286;SDS011;8251;53.568;10.018;2022-07-15T02:38:16;3.70;;;3.40;;
16286;SDS011;8251;53.568;10.018;2022-07-15T02:40:45;4.87;;;3.93;;
16286;SDS011;8251;53.568;10.018;2022-07-15T02:43:13;6.20;;;4.70;;
16286;SDS011;8251;53.568;10.018;2022-07-15T02:45:41;4.80;;;4.10;;
16286;SDS011;8251;53.568;10.018;2022-07-15T02:48:09;5.53;;;3.73;;
16286;SDS011;8251;53.568;10.018;2022-07-15T02:50:36;6.83;;;3.77;;
16286;SDS011;8251;53.568;10.018;2022-07-15T02:53:03;7.17;;;3.43;;
16286;SDS011;8251;53.568;10.018;2022-07-15T02:55:30;5.90;;;3.77;;
16286;SDS011;8251;53.568;10.018;2022-07-15T02:57:57;5.57;;;3.70;;
16286;SDS011;8251;53.568;10.018;2022-07-15T03:00:25;6.80;;;3.57;;
16286;SDS011;8251;53.568;10.018;2022-07-15T03:02:53;6.70;;;3.20;;
16286;SDS011;8251;53.568;10.018;2022-07-15T03:05:20;4.87;;;3.30;;
16286;SDS011;8251;53.568;10.018;2022-07-15T03:07:48;3.30;;;2.93;;
16286;SDS011;8251;53.568;10.018;2022-07-15T03:10:14;5.03;;;2.97;;
16286;SDS011;8251;53.568;10.018;2022-07-15T03:12:42;5.77;;;2.90;;
16286;SDS011;8251;53.568;10.018;2022-07-15T03:15:09;2.87;;;2.67;;
16286;SDS011;8251;53.568;10.018;2022-07-15T03:17:37;5.33;;;2.73;;
16286;SDS011;8251;53.568;10.018;2022-07-15T03:20:07;2.63;;;2.40;;
16286;SDS011;8251;53.568;10.018;2022-07-15T03:22:35;3.27;;;2.50;;
16286;SDS011;8251;53.568;10.018;2022-07-15T03:25:02;7.17;;;3.37;;
16286;SDS011;8251;53.568;10.018;2022-07-15T03:27:30;4.63;;;2.90;;
16286;SDS011;8251;53.568;10.018;2022-07-15T03:29:57;2.90;;;2.70;;
16286;SDS011;8251;53.568;10.018;2022-07-15T03:32:24;6.80;;;3.20;;
16286;SDS011;8251;53.568;10.018;2022-07-15T03:34:51;3.03;;;2.60;;
16286;SDS011;8251;53.568;10.018;2022-07-15T03:37:23;7.00;;;2.73;;
16286;SDS011;8251;53.568;10.018;2022-07-15T03:39:50;5.07;;;3.33;;
16286;SDS011;8251;53.568;10.018;2022-07-15T03:42:17;6.00;;;3.50;;
16286;SDS011;8251;53.568;10.018;2022-07-15T03:44:44;5.97;;;3.00;;
16286;SDS011;8251;53.568;10.018;2022-07-15T03:47:11;3.37;;;2.80;;
16286;SDS011;8251;53.568;10.018;2022-07-15T03:49:38;4.90;;;3.03;;
16286;SDS011;8251;53.568;10.018;2022-07-15T03:52:05;8.20;;;2.33;;
16286;SDS011;8251;53.568;10.018;2022-07-15T03:54:33;4.97;;;2.80;;
16286;SDS011;8251;53.568;10.018;2022-07-15T03:57:00;4.17;;;3.20;;
16286;SDS011;8251;53.568;10.018;2022-07-15T03:59:27;5.70;;;2.70;;
16286;SDS011;8251;53.568;10.018;2022-07-15T04:01:58;4.30;;;2.80;;
16286;SDS011;8251;53.568;10.018;2022-07-15T04:04:25;4.13;;;3.33;;
16286;SDS011;8251;53.568;10.018;2022-07-15T04:06:52;4.30;;;3.90;;
16286;SDS011;8251;53.568;10.018;2022-07-15T04:09:20;4.60;;;3.70;;
16286;SDS011;8251;53.568;10.018;2022-07-15T04:11:48;4.83;;;3.53;;
16286;SDS011;8251;53.568;10.018;2022-07-15T04:14:16;7.23;;;4.50;;
16286;SDS011;8251;53.568;10.018;2022-07-15T04:16:44;5.53;;;3.40;;
16286;SDS011;8251;53.568;10.018;2022-07-15T04:19:12;3.57;;;3.37;;
16286;SDS011;8251;53.568;10.018;2022-07-15T04:21:42;9.07;;;4.00;;
16286;SDS011;8251;53.568;10.018;2022-07-15T04:24:10;3.83;;;3.53;;
16286;SDS011;8251;53.568;10.018;2022-07-15T04:26:40;3.43;;;3.23;;
16286;SDS011;8251;53.568;10.018;2022-07-15T04:29:08;3.20;;;3.00;;
16286;SDS011;8251;53.568;10.018;2022-07-15T04:31:35;6.00;;;3.80;;
16286;SDS011;8251;53.568;10.018;2022-07-15T04:34:13;3.57;;;3.33;;
16286;SDS011;8251;53.568;10.018;2022-07-15T04:36:45;4.33;;;3.47;;
16286;SDS011;8251;53.568;10.018;2022-07-15T04:39:14;4.90;;;3.50;;
16286;SDS011;8251;53.568;10.018;2022-07-15T04:41:47;4.00;;;2.50;;
16286;SDS011;8251;53.568;10.018;2022-07-15T04:44:19;3.57;;;3.37;;
16286;SDS011;8251;53.568;10.018;2022-07-15T04:46:46;5.43;;;2.63;;
16286;SDS011;8251;53.568;10.018;2022-07-15T04:49:13;3.77;;;3.57;;
16286;SDS011;8251;53.568;10.018;2022-07-15T04:51:57;4.97;;;3.43;;
16286;SDS011;8251;53.568;10.018;2022-07-15T04:54:24;4.83;;;3.07;;
16286;SDS011;8251;53.568;10.018;2022-07-15T04:56:51;4.47;;;3.20;;
16286;SDS011;8251;53.568;10.018;2022-07-15T04:59:19;7.43;;;3.60;;
16286;SDS011;8251;53.568;10.018;2022-07-15T05:01:46;5.60;;;3.97;;
16286;SDS011;8251;53.568;10.018;2022-07-15T05:04:13;5.00;;;4.53;;
16286;SDS011;8251;53.568;10.018;2022-07-15T05:06:40;5.87;;;3.93;;
16286;SDS011;8251;53.568;10.018;2022-07-15T05:09:07;4.57;;;3.90;;
16286;SDS011;8251;53.568;10.018;2022-07-15T05:11:34;5.30;;;3.93;;
16286;SDS011;8251;53.568;10.018;2022-07-15T05:14:01;6.67;;;4.80;;
16286;SDS011;8251;53.568;10.018;2022-07-15T05:16:29;7.17;;;4.00;;
16286;SDS011;8251;53.568;10.018;2022-07-15T05:18:56;5.40;;;4.10;;
16286;SDS011;8251;53.568;10.018;2022-07-15T05:21:23;6.00;;;4.87;;
16286;SDS011;8251;53.568;10.018;2022-07-15T05:23:51;7.20;;;4.07;;
16286;SDS011;8251;53.568;10.018;2022-07-15T05:26:18;13.10;;;4.13;;
16286;SDS011;8251;53.568;10.018;2022-07-15T05:28:45;9.97;;;3.97;;
16286;SDS011;8251;53.568;10.018;2022-07-15T05:31:12;8.30;;;4.33;;
16286;SDS011;8251;53.568;10.018;2022-07-15T05:33:41;6.03;;;4.27;;
16286;SDS011;8251;53.568;10.018;2022-07-15T05:36:10;7.10;;;4.10;;
16286;SDS011;8251;53.568;10.018;2022-07-15T05:38:38;4.77;;;4.13;;
16286;SDS011;8251;53.568;10.018;2022-07-15T05:41:05;6.30;;;4.00;;
16286;SDS011;8251;53.568;10.018;2022-07-15T05:43:31;6.10;;;3.80;;
16286;SDS011;8251;53.568;10.018;2022-07-15T05:45:59;6.80;;;4.20;;
16286;SDS011;8251;53.568;10.018;2022-07-15T05:48:26;7.30;;;5.60;;
16286;SDS011;8251;53.568;10.018;2022-07-15T05:50:54;5.30;;;3.60;;
16286;SDS011;8251;53.568;10.018;2022-07-15T05:53:21;7.03;;;4.13;;
16286;SDS011;8251;53.568;10.018;2022-07-15T05:55:48;4.67;;;4.20;;
16286;SDS011;8251;53.568;10.018;2022-07-15T05:58:15;9.37;;;4.43;;
16286;SDS011;8251;53.568;10.018;2022-07-15T06:00:42;5.73;;;3.50;;
16286;SDS011;8251;53.568;10.018;2022-07-15T06:03:09;9.33;;;4.20;;
16286;SDS011;8251;53.568;10.018;2022-07-15T06:05:36;5.30;;;3.60;;
16286;SDS011;8251;53.568;10.018;2022-07-15T06:08:04;4.33;;;3.30;;
16286;SDS011;8251;53.568;10.018;2022-07-15T06:10:32;4.80;;;3.50;;
16286;SDS011;8251;53.568;10.018;2022-07-15T06:12:59;9.13;;;3.43;;
16286;SDS011;8251;53.568;10.018;2022-07-15T06:15:26;10.07;;;4.73;;
16286;SDS011;8251;53.568;10.018;2022-07-15T06:17:53;5.60;;;4.27;;
16286;SDS011;8251;53.568;10.018;2022-07-15T06:20:20;8.03;;;3.50;;
16286;SDS011;8251;53.568;10.018;2022-07-15T06:22:47;4.40;;;3.70;;
16286;SDS011;8251;53.568;10.018;2022-07-15T06:25:15;14.77;;;4.50;;
16286;SDS011;8251;53.568;10.018;2022-07-15T06:27:42;6.20;;;4.40;;
16286;SDS011;8251;53.568;10.018;2022-07-15T06:30:09;8.53;;;4.23;;
16286;SDS011;8251;53.568;10.018;2022-07-15T06:32:37;4.27;;;3.90;;
16286;SDS011;8251;53.568;10.018;2022-07-15T06:35:04;5.73;;;4.10;;
16286;SDS011;8251;53.568;10.018;2022-07-15T06:37:32;7.07;;;4.00;;
16286;SDS011;8251;53.568;10.018;2022-07-15T06:39:59;5.77;;;3.80;;
16286;SDS011;8251;53.568;10.018;2022-07-15T06:42:28;4.53;;;4.17;;
16286;SDS011;8251;53.568;10.018;2022-07-15T06:44:55;4.43;;;3.20;;
16286;SDS011;8251;53.568;10.018;2022-07-15T06:47:22;8.80;;;4.63;;
16286;SDS011;8251;53.568;10.018;2022-07-15T06:49:49;5.17;;;4.70;;
16286;SDS011;8251;53.568;10.018;2022-07-15T06:52:16;6.10;;;5.57;;
16286;SDS011;8251;53.568;10.018;2022-07-15T06:54:43;6.07;;;5.10;;
16286;SDS011;8251;53.568;10.018;2022-07-15T06:57:10;6.63;;;6.10;;
16286;SDS011;8251;53.568;10.018;2022-07-15T06:59:39;9.53;;;5.97;;
16286;SDS011;8251;53.568;10.018;2022-07-15T07:02:06;7.77;;;5.60;;
16286;SDS011;8251;53.568;10.018;2022-07-15T07:04:33;5.53;;;5.00;;
16286;SDS011;8251;53.568;10.018;2022-07-15T07:07:00;7.33;;;4.43;;
16286;SDS011;8251;53.568;10.018;2022-07-15T07:09:27;8.63;;;5.53;;
16286;SDS011;8251;53.568;10.018;2022-07-15T07:11:55;5.70;;;4.40;;
16286;SDS011;8251;53.568;10.018;2022-07-15T07:14:23;6.70;;;6.10;;
16286;SDS011;8251;53.568;10.018;2022-07-15T07:16:51;8.53;;;5.87;;
16286;SDS011;8251;53.568;10.018;2022-07-15T07:19:18;7.63;;;7.00;;
16286;SDS011;8251;53.568;10.018;2022-07-15T07:21:45;7.53;;;6.23;;
16286;SDS011;8251;53.568;10.018;2022-07-15T07:24:12;10.30;;;6.67;;
16286;SDS011;8251;53.568;10.018;2022-07-15T07:26:40;6.63;;;4.90;;
16286;SDS011;8251;53.568;10.018;2022-07-15T07:29:07;7.50;;;6.07;;
16286;SDS011;8251;53.568;10.018;2022-07-15T07:31:35;10.33;;;5.93;;
16286;SDS011;8251;53.568;10.018;2022-07-15T07:34:03;4.67;;;4.23;;
16286;SDS011;8251;53.568;10.018;2022-07-15T07:36:30;6.63;;;4.63;;
16286;SDS011;8251;53.568;10.018;2022-07-15T07:38:57;8.80;;;5.20;;
16286;SDS011;8251;53.568;10.018;2022-07-15T07:41:24;6.30;;;5.20;;
16286;SDS011;8251;53.568;10.018;2022-07-15T07:43:51;6.07;;;5.50;;
16286;SDS011;8251;53.568;10.018;2022-07-15T07:46:18;5.40;;;5.00;;
16286;SDS011;8251;53.568;10.018;2022-07-15T07:48:45;5.90;;;5.50;;
16286;SDS011;8251;53.568;10.018;2022-07-15T07:51:13;5.93;;;5.40;;
16286;SDS011;8251;53.568;10.018;2022-07-15T07:53:42;5.83;;;5.30;;
16286;SDS011;8251;53.568;10.018;2022-07-15T07:56:12;6.43;;;5.83;;
16286;SDS011;8251;53.568;10.018;2022-07-15T07:58:44;6.20;;;5.63;;
16286;SDS011;8251;53.568;10.018;2022-07-15T08:01:16;6.33;;;5.90;;
16286;SDS011;8251;53.568;10.018;2022-07-15T08:03:46;5.97;;;5.13;;
16286;SDS011;8251;53.568;10.018;2022-07-15T08:06:14;6.97;;;6.23;;
16286;SDS011;8251;53.568;10.018;2022-07-15T08:08:41;6.13;;;5.53;;
16286;SDS011;8251;53.568;10.018;2022-07-15T08:11:09;9.00;;;5.20;;
16286;SDS011;8251;53.568;10.018;2022-07-15T08:13:38;5.57;;;5.17;;
16286;SDS011;8251;53.568;10.018;2022-07-15T08:16:05;6.00;;;5.30;;
16286;SDS011;8251;53.568;10.018;2022-07-15T08:18:33;6.03;;;5.53;;
16286;SDS011;8251;53.568;10.018;2022-07-15T08:21:05;5.23;;;4.17;;
16286;SDS011;8251;53.568;10.018;2022-07-15T08:23:38;5.13;;;4.60;;
16286;SDS011;8251;53.568;10.018;2022-07-15T08:26:05;5.90;;;4.70;;
16286;SDS011;8251;53.568;10.018;2022-07-15T08:28:33;8.27;;;4.40;;
16286;SDS011;8251;53.568;10.018;2022-07-15T08:31:00;7.40;;;4.70;;
16286;SDS011;8251;53.568;10.018;2022-07-15T08:33:27;6.03;;;4.17;;
16286;SDS011;8251;53.568;10.018;2022-07-15T08:35:54;5.63;;;4.00;;
16286;SDS011;8251;53.568;10.018;2022-07-15T08:38:21;4.50;;;4.10;;
16286;SDS011;8251;53.568;10.018;2022-07-15T08:40:49;4.80;;;4.40;;
16286;SDS011;8251;53.568;10.018;2022-07-15T08:43:16;6.37;;;4.60;;
16286;SDS011;8251;53.568;10.018;2022-07-15T08:45:44;6.27;;;4.57;;
16286;SDS011;8251;53.568;10.018;2022-07-15T08:48:11;4.50;;;4.13;;
16286;SDS011;8251;53.568;10.018;2022-07-15T08:50:39;5.83;;;4.13;;
16286;SDS011;8251;53.568;10.018;2022-07-15T08:53:08;4.80;;;4.50;;
16286;SDS011;8251;53.568;10.018;2022-07-15T08:55:35;7.53;;;4.90;;
16286;SDS011;8251;53.568;10.018;2022-07-15T08:58:03;4.10;;;3.70;;
16286;SDS011;8251;53.568;10.018;2022-07-15T09:00:30;5.00;;;4.10;;
16286;SDS011;8251;53.568;10.018;2022-07-15T09:02:57;7.13;;;4.43;;
16286;SDS011;8251;53.568;10.018;2022-07-15T09:05:26;5.83;;;5.33;;
16286;SDS011;8251;53.568;10.018;2022-07-15T09:07:55;4.10;;;3.53;;
16286;SDS011;8251;53.568;10.018;2022-07-15T09:10:40;6.60;;;4.80;;
16286;SDS011;8251;53.568;10.018;2022-07-15T09:13:24;4.43;;;4.03;;
16286;SDS011;8251;53.568;10.018;2022-07-15T09:15:56;5.80;;;5.20;;
16286;SDS011;8251;53.568;10.018;2022-07-15T09:18:26;6.67;;;6.07;;
16286;SDS011;8251;53.568;10.018;2022-07-15T09:20:54;7.40;;;6.70;;
16286;SDS011;8251;53.568;10.018;2022-07-15T09:23:23;6.03;;;5.50;;
16286;SDS011;8251;53.568;10.018;2022-07-15T09:25:55;6.03;;;5.40;;
16286;SDS011;8251;53.568;10.018;2022-07-15T09:31:11;4.63;;;4.20;;
16286;SDS011;8251;53.568;10.018;2022-07-15T09:33:58;5.60;;;4.70;;
16286;SDS011;8251;53.568;10.018;2022-07-15T09:36:27;5.67;;;5.30;;
16286;SDS011;8251;53.568;10.018;2022-07-15T09:38:56;6.70;;;5.27;;
16286;SDS011;8251;53.568;10.018;2022-07-15T09:41:31;3.93;;;3.60;;
16286;SDS011;8251;53.568;10.018;2022-07-15T09:44:01;7.07;;;5.50;;
16286;SDS011;8251;53.568;10.018;2022-07-15T09:46:38;7.03;;;5.40;;
16286;SDS011;8251;53.568;10.018;2022-07-15T09:49:08;5.20;;;2.97;;
16286;SDS011;8251;53.568;10.018;2022-07-15T09:51:45;4.80;;;4.50;;
16286;SDS011;8251;53.568;10.018;2022-07-15T09:54:13;4.10;;;1.13;;
16286;SDS011;8251;53.568;10.018;2022-07-15T09:56:41;3.03;;;2.58;;
16286;SDS011;8251;53.568;10.018;2022-07-15T09:59:11;5.35;;;1.88;;
16286;SDS011;8251;53.568;10.018;2022-07-15T10:01:40;4.15;;;2.63;;
16286;SDS011;8251;53.568;10.018;2022-07-15T10:04:08;4.93;;;4.50;;
16286;SDS011;8251;53.568;10.018;2022-07-15T10:06:37;1.98;;;1.77;;
16286;SDS011;8251;53.568;10.018;2022-07-15T10:09:05;0.50;;;0.50;;
16286;SDS011;8251;53.568;10.018;2022-07-15T10:11:35;2.95;;;1.60;;
16286;SDS011;8251;53.568;10.018;2022-07-15T10:17:13;2.55;;;1.92;;
16286;SDS011;8251;53.568;10.018;2022-07-15T10:20:07;1.40;;;0.80;;
16286;SDS011;8251;53.568;10.018;2022-07-15T10:22:56;2.00;;;1.90;;
16286;SDS011;8251;53.568;10.018;2022-07-15T10:25:34;2.60;;;1.20;;
16286;SDS011;8251;53.568;10.018;2022-07-15T10:28:31;1.58;;;1.48;;
16286;SDS011;8251;53.568;10.018;2022-07-15T10:31:17;2.38;;;1.02;;
16286;SDS011;8251;53.568;10.018;2022-07-15T10:37:01;2.92;;;0.77;;
16286;SDS011;8251;53.568;10.018;2022-07-15T10:39:48;4.13;;;0.65;;
16286;SDS011;8251;53.568;10.018;2022-07-15T10:42:21;4.32;;;1.35;;
16286;SDS011;8251;53.568;10.018;2022-07-15T10:44:49;5.47;;;0.95;;
16286;SDS011;8251;53.568;10.018;2022-07-15T10:47:30;1.35;;;1.20;;
16286;SDS011;8251;53.568;10.018;2022-07-15T10:49:58;3.80;;;1.02;;
16286;SDS011;8251;53.568;10.018;2022-07-15T10:52:25;3.33;;;2.35;;
16286;SDS011;8251;53.568;10.018;2022-07-15T10:55:00;3.90;;;2.75;;
16286;SDS011;8251;53.568;10.018;2022-07-15T11:00:29;3.72;;;2.72;;
16286;SDS011;8251;53.568;10.018;2022-07-15T11:03:02;3.35;;;3.03;;
16286;SDS011;8251;53.568;10.018;2022-07-15T11:05:31;4.65;;;3.33;;
16286;SDS011;8251;53.568;10.018;2022-07-15T11:07:59;1.63;;;1.02;;
16286;SDS011;8251;53.568;10.018;2022-07-15T11:10:26;3.47;;;1.73;;
16286;SDS011;8251;53.568;10.018;2022-07-15T11:12:57;1.63;;;1.17;;
16286;SDS011;8251;53.568;10.018;2022-07-15T11:15:26;2.05;;;0.90;;
16286;SDS011;8251;53.568;10.018;2022-07-15T11:17:53;4.47;;;1.63;;
16286;SDS011;8251;53.568;10.018;2022-07-15T11:20:24;5.93;;;3.38;;
16286;SDS011;8251;53.568;10.018;2022-07-15T11:22:57;4.20;;;2.50;;
16286;SDS011;8251;53.568;10.018;2022-07-15T11:25:25;2.80;;;2.60;;
16286;SDS011;8251;53.568;10.018;2022-07-15T11:27:54;3.00;;;2.28;;
16286;SDS011;8251;53.568;10.018;2022-07-15T11:30:24;3.63;;;1.02;;
16286;SDS011;8251;53.568;10.018;2022-07-15T11:32:54;2.10;;;1.85;;
16286;SDS011;8251;53.568;10.018;2022-07-15T11:35:23;2.10;;;1.90;;
16286;SDS011;8251;53.568;10.018;2022-07-15T11:38:02;2.25;;;1.95;;
16286;SDS011;8251;53.568;10.018;2022-07-15T11:40:30;2.78;;;1.40;;
16286;SDS011;8251;53.568;10.018;2022-07-15T11:43:17;4.10;;;3.80;;
16286;SDS011;8251;53.568;10.018;2022-07-15T11:46:03;4.45;;;2.85;;
16286;SDS011;8251;53.568;10.018;2022-07-15T11:48:36;8.07;;;3.38;;
16286;SDS011;8251;53.568;10.018;2022-07-15T11:51:05;6.00;;;1.05;;
16286;SDS011;8251;53.568;10.018;2022-07-15T11:53:34;3.40;;;1.65;;
16286;SDS011;8251;53.568;10.018;2022-07-15T11:56:02;1.90;;;1.73;;
16286;SDS011;8251;53.568;10.018;2022-07-15T11:58:31;2.27;;;1.70;;
16286;SDS011;8251;53.568;10.018;2022-07-15T12:01:02;7.13;;;2.88;;
16286;SDS011;8251;53.568;10.018;2022-07-15T12:03:35;3.60;;;2.30;;
16286;SDS011;8251;53.568;10.018;2022-07-15T12:06:13;4.40;;;3.27;;
16286;SDS011;8251;53.568;10.018;2022-07-15T12:08:48;2.35;;;2.15;;
16286;SDS011;8251;53.568;10.018;2022-07-15T12:11:20;1.97;;;1.73;;
16286;SDS011;8251;53.568;10.018;2022-07-15T12:13:50;4.80;;;1.90;;
16286;SDS011;8251;53.568;10.018;2022-07-15T12:16:21;4.70;;;3.60;;
16286;SDS011;8251;53.568;10.018;2022-07-15T12:18:51;7.03;;;2.50;;
16286;SDS011;8251;53.568;10.018;2022-07-15T12:21:21;6.87;;;3.23;;
16286;SDS011;8251;53.568;10.018;2022-07-15T12:23:58;5.13;;;2.63;;
16286;SDS011;8251;53.568;10.018;2022-07-15T12:26:33;4.07;;;3.77;;
16286;SDS011;8251;53.568;10.018;2022-07-15T12:29:04;4.60;;;3.50;;
16286;SDS011;8251;53.568;10.018;2022-07-15T12:31:32;10.40;;;2.37;;
16286;SDS011;8251;53.568;10.018;2022-07-15T12:34:00;14.20;;;2.03;;
16286;SDS011;8251;53.568;10.018;2022-07-15T12:36:30;9.00;;;3.60;;
16286;SDS011;8251;53.568;10.018;2022-07-15T12:39:02;2.27;;;2.17;;
16286;SDS011;8251;53.568;10.018;2022-07-15T12:41:32;4.70;;;1.20;;
16286;SDS011;8251;53.568;10.018;2022-07-15T12:44:00;3.80;;;1.80;;
16286;SDS011;8251;53.568;10.018;2022-07-15T12:52:13;6.57;;;2.67;;
16286;SDS011;8251;53.568;10.018;2022-07-15T12:54:45;5.07;;;1.60;;
16286;SDS011;8251;53.568;10.018;2022-07-15T13:00:02;5.50;;;2.77;;
16286;SDS011;8251;53.568;10.018;2022-07-15T13:02:31;5.72;;;4.13;;
16286;SDS011;8251;53.568;10.018;2022-07-15T13:05:18;3.03;;;2.78;;
16286;SDS011;8251;53.568;10.018;2022-07-15T13:07:48;4.65;;;2.97;;
16286;SDS011;8251;53.568;10.018;2022-07-15T13:10:16;4.10;;;0.98;;
16286;SDS011;8251;53.568;10.018;2022-07-15T13:12:43;3.95;;;1.88;;
16286;SDS011;8251;53.568;10.018;2022-07-15T13:15:10;5.22;;;2.10;;
16286;SDS011;8251;53.568;10.018;2022-07-15T13:17:37;6.75;;;3.72;;
16286;SDS011;8251;53.568;10.018;2022-07-15T13:20:05;3.33;;;1.35;;
16286;SDS011;8251;53.568;10.018;2022-07-15T13:22:33;2.63;;;1.20;;
16286;SDS011;8251;53.568;10.018;2022-07-15T13:25:01;6.10;;;1.80;;
16286;SDS011;8251;53.568;10.018;2022-07-15T13:27:28;3.20;;;1.23;;
16286;SDS011;8251;53.568;10.018;2022-07-15T13:29:55;3.15;;;1.10;;
16286;SDS011;8251;53.568;10.018;2022-07-15T13:32:23;4.72;;;1.10;;
16286;SDS011;8251;53.568;10.018;2022-07-15T13:34:50;3.20;;;1.23;;
16286;SDS011;8251;53.568;10.018;2022-07-15T13:37:17;12.27;;;2.22;;
16286;SDS011;8251;53.568;10.018;2022-07-15T13:39:44;5.60;;;2.10;;
16286;SDS011;8251;53.568;10.018;2022-07-15T13:42:13;4.32;;;1.92;;
16286;SDS011;8251;53.568;10.018;2022-07-15T13:44:40;3.58;;;3.28;;
16286;SDS011;8251;53.568;10.018;2022-07-15T13:47:07;2.58;;;1.20;;
16286;SDS011;8251;53.568;10.018;2022-07-15T13:49:34;4.70;;;3.30;;
16286;SDS011;8251;53.568;10.018;2022-07-15T13:52:18;3.35;;;3.05;;
16286;SDS011;8251;53.568;10.018;2022-07-15T13:54:45;2.55;;;1.52;;
16286;SDS011;8251;53.568;10.018;2022-07-15T13:57:13;2.05;;;1.10;;
16286;SDS011;8251;53.568;10.018;2022-07-15T13:59:41;7.80;;;2.03;;
16286;SDS011;8251;53.568;10.018;2022-07-15T14:02:13;4.45;;;2.00;;
16286;SDS011;8251;53.568;10.018;2022-07-15T14:04:43;3.15;;;1.10;;
16286;SDS011;8251;53.568;10.018;2022-07-15T14:07:10;5.35;;;1.10;;
16286;SDS011;8251;53.568;10.018;2022-07-15T14:09:38;2.92;;;0.80;;
16286;SDS011;8251;53.568;10.018;2022-07-15T14:12:05;5.47;;;1.98;;
16286;SDS011;8251;53.568;10.018;2022-07-15T14:14:34;3.28;;;1.95;;
16286;SDS011;8251;53.568;10.018;2022-07-15T14:17:01;4.43;;;1.73;;
16286;SDS011;8251;53.568;10.018;2022-07-15T14:19:32;3.53;;;1.67;;
16286;SDS011;8251;53.568;10.018;2022-07-15T14:22:01;2.55;;;2.30;;
16286;SDS011;8251;53.568;10.018;2022-07-15T14:24:29;2.33;;;0.70;;
16286;SDS011;8251;53.568;10.018;2022-07-15T14:26:57;2.72;;;1.27;;
16286;SDS011;8251;53.568;10.018;2022-07-15T14:29:26;2.35;;;1.33;;
16286;SDS011;8251;53.568;10.018;2022-07-15T14:31:55;3.50;;;1.45;;
16286;SDS011;8251;53.568;10.018;2022-07-15T14:34:21;1.30;;;1.20;;
16286;SDS011;8251;53.568;10.018;2022-07-15T14:36:48;3.80;;;1.08;;
16286;SDS011;8251;53.568;10.018;2022-07-15T14:39:16;1.38;;;1.27;;
16286;SDS011;8251;53.568;10.018;2022-07-15T14:41:43;4.30;;;1.67;;
16286;SDS011;8251;53.568;10.018;2022-07-15T14:44:10;3.50;;;2.20;;
16286;SDS011;8251;53.568;10.018;2022-07-15T14:46:37;1.73;;;1.25;;
16286;SDS011;8251;53.568;10.018;2022-07-15T14:49:10;2.30;;;1.38;;
16286;SDS011;8251;53.568;10.018;2022-07-15T14:51:37;4.03;;;1.50;;
16286;SDS011;8251;53.568;10.018;2022-07-15T14:54:04;2.50;;;2.30;;
16286;SDS011;8251;53.568;10.018;2022-07-15T14:56:31;2.22;;;1.20;;
16286;SDS011;8251;53.568;10.018;2022-07-15T14:58:58;7.20;;;1.27;;
16286;SDS011;8251;53.568;10.018;2022-07-15T15:01:27;3.03;;;1.88;;
16286;SDS011;8251;53.568;10.018;2022-07-15T15:04:05;3.40;;;1.00;;
16286;SDS011;8251;53.568;10.018;2022-07-15T15:06:41;4.95;;;2.08;;
16286;SDS011;8251;53.568;10.018;2022-07-15T15:09:08;2.67;;;2.15;;
16286;SDS011;8251;53.568;10.018;2022-07-15T15:11:34;3.83;;;1.45;;
16286;SDS011;8251;53.568;10.018;2022-07-15T15:14:02;5.18;;;1.80;;
16286;SDS011;8251;53.568;10.018;2022-07-15T15:16:30;1.10;;;1.10;;
16286;SDS011;8251;53.568;10.018;2022-07-15T15:18:57;0.60;;;0.60;;
16286;SDS011;8251;53.568;10.018;2022-07-15T15:21:24;5.97;;;2.08;;